KCWI

Clinton Municipal Airport

Clinton, Iowa, USA
METAR KCWI 172056Z AUTO 27012KT 1 1/2SM -SN BR OVC003 00/M02 A2994 RMK AO2 SLP167 P0004 60005 T00001017 53001 FZRANO
Observed Flight Rules
Feb-17 @ 20:56 UTC (35 minutes ago) Instrument Flight Rules
Wind Visibility Clouds Conditions
270° at 12 knots 1 1/2 miles
  • Overcast at 300' AGL
  • Light Snow
  • Mist
Temperatures Readings Precipitation
Current 0°C / 32°F
Dewpoint -2°C / 28°F
Humidity 87%
Altimeter 29.94" Hg
Pressure 1016.7 hPa
Elevation 216
Current Rain 0.04
METAR KCWI 172056Z AUTO 27012KT 1 1/2SM -SN BR OVC003 00/M02 A2994 RMK AO2 SLP167 P0004 60005 T00001017 53001 FZRANO
Observed Flight Rules
Feb-17 @ 20:56 UTC
(35 minutes ago)
LIFR
Wind Visibility
270° at 12 knots 1 1/2 miles
Clouds
  • Overcast at 300' AGL
Conditions
  • Light Snow
  • Mist
Temperature Dewpoint
0°C / 32°F -2°C / 28°F
Humidity Altimeter Pressure
87% 29.94" Hg 1016.7 hPa
Current Rain
0.04